Time;durP1;ratioP1;P1;durP2;ratioP2;P2;SDS_P1;SDS_P2;PMS_P1;PMS_P2;Temp;Humidity;BMP_temperature;BMP_pressure;BME280_temperature;BME280_humidity;BME280_pressure;Samples;Min_cycle;Max_cycle;Signal;HPM_P1;HPM_P2
2024/02/21 00:00:24;;;;;;;;;;;;;;;;;;4965469;28;5205;-64
2024/02/21 00:02:50;;;;;;;;;;;;;;;;;;4960665;28;3423;-65
2024/02/21 00:05:15;;;;;;;;;;;;;;;;;;4945293;28;5009;-64
2024/02/21 00:07:40;;;;;;;;;;;;;;;;;;4963666;28;5239;-64
2024/02/21 00:10:06;;;;;;;;;;;;;;;;;;4966450;28;5327;-65
2024/02/21 00:12:31;;;;;;;;;;;;;;;;;;4968080;28;4655;-64
2024/02/21 00:14:57;;;;;;;;;;;;;;;;;;4965641;28;3435;-66
2024/02/21 00:17:22;;;;;;;;;;;;;;;;;;4964496;28;5167;-64
2024/02/21 00:19:47;;;;;;;;;;;;;;;;;;4965144;28;5093;-67
2024/02/21 00:22:13;;;;;;;;;;;;;;;;;;4962966;28;4789;-65
2024/02/21 00:24:38;;;;;;;;;;;;;;;;;;4963242;28;5294;-64
2024/02/21 00:27:03;;;;;;;;;;;;;;;;;;4964245;28;3292;-65
2024/02/21 00:29:29;;;;;;;;;;;;;;;;;;4965059;28;5092;-64
2024/02/21 00:31:54;;;;;;;;;;;;;;;;;;4965942;28;5122;-64
2024/02/21 00:34:19;;;;;;;;;;;;;;;;;;4947110;28;4780;-66
2024/02/21 00:36:45;;;;;;;;;;;;;;;;;;4966088;28;5188;-64
2024/02/21 00:39:10;;;;;;;;;;;;;;;;;;4964326;28;3427;-63
2024/02/21 00:41:35;;;;;;;;;;;;;;;;;;4969243;28;5072;-63
2024/02/21 00:44:01;;;;;;;;;;;;;;;;;;4965193;28;4498;-63
2024/02/21 00:46:26;;;;;;;;;;;;;;;;;;4967728;28;4529;-64
2024/02/21 00:48:52;;;;;;;;;;;;;;;;;;4949350;28;5271;-63
2024/02/21 00:51:17;;;;;;;;;;;;;;;;;;4963217;28;5290;-63
2024/02/21 00:53:42;;;;;;;;;;;;;;;;;;4966907;28;3365;-63
2024/02/21 00:56:08;;;;;;;;;;;;;;;;;;4959879;28;5087;-64
2024/02/21 00:58:33;;;;;;;;;;;;;;;;;;4960195;28;4691;-63
2024/02/21 01:01:00;;;;;;;;;;;;;;;;;;4962593;28;5125;-63
2024/02/21 01:03:25;;;;;;;;;;;;;;;;;;4964519;28;4997;-64
2024/02/21 01:05:50;;;;;;;;;;;;;;;;;;4966916;28;3386;-63
2024/02/21 01:08:16;;;;;;;;;;;;;;;;;;4963649;28;5260;-64
2024/02/21 01:10:41;;;;;;;;;;;;;;;;;;4967586;28;5124;-64
2024/02/21 01:13:07;;;;;;;;;;;;;;;;;;4965937;28;5155;-64
2024/02/21 01:15:32;;;;;;;;;;;;;;;;;;4951605;28;5113;-64
2024/02/21 01:17:58;;;;;;;;;;;;;;;;;;4958211;28;3162;-64
2024/02/21 01:20:23;;;;;;;;;;;;;;;;;;4967802;28;4695;-63
2024/02/21 01:22:48;;;;;;;;;;;;;;;;;;4964004;28;5269;-64
2024/02/21 01:25:14;;;;;;;;;;;;;;;;;;4965271;28;4848;-63
2024/02/21 01:27:39;;;;;;;;;;;;;;;;;;4950052;28;5133;-64
2024/02/21 01:30:05;;;;;;;;;;;;;;;;;;4960227;28;3296;-66
2024/02/21 01:32:31;;;;;;;;;;;;;;;;;;4945552;28;5108;-66
2024/02/21 01:34:56;;;;;;;;;;;;;;;;;;4960366;28;4741;-64
2024/02/21 01:37:21;;;;;;;;;;;;;;;;;;4965960;28;4591;-67
2024/02/21 01:39:47;;;;;;;;;;;;;;;;;;4966922;28;4956;-64
2024/02/21 01:42:12;;;;;;;;;;;;;;;;;;4966605;28;3372;-64
2024/02/21 01:44:38;;;;;;;;;;;;;;;;;;4965822;28;4406;-65
2024/02/21 01:47:03;;;;;;;;;;;;;;;;;;4966175;28;4673;-65
2024/02/21 01:49:28;;;;;;;;;;;;;;;;;;4968493;28;5370;-64
2024/02/21 01:51:53;;;;;;;;;;;;;;;;;;4965603;28;4625;-64
2024/02/21 01:54:19;;;;;;;;;;;;;;;;;;4947583;28;5417;-65
2024/02/21 01:56:44;;;;;;;;;;;;;;;;;;4970111;28;1060;-65
2024/02/21 01:59:10;;;;;;;;;;;;;;;;;;4963850;28;5185;-63
2024/02/21 02:01:35;;;;;;;;;;;;;;;;;;4945972;28;5213;-64
2024/02/21 02:04:00;;;;;;;;;;;;;;;;;;4943162;28;4952;-64
2024/02/21 02:06:26;;;;;;;;;;;;;;;;;;4963792;28;5142;-63
2024/02/21 02:08:51;;;;;;;;;;;;;;;;;;4964854;28;3673;-63
2024/02/21 02:11:17;;;;;;;;;;;;;;;;;;4965675;28;5130;-64
2024/02/21 02:13:42;;;;;;;;;;;;;;;;;;4925678;28;4803;-64
2024/02/21 02:16:07;;;;;;;;;;;;;;;;;;4966432;28;4605;-65
2024/02/21 02:18:32;;;;;;;;;;;;;;;;;;4943577;28;5116;-64
2024/02/21 02:20:58;;;;;;;;;;;;;;;;;;4955314;28;3789;-65
2024/02/21 02:23:31;;;;;;;;;;;;;;;;;;4957611;28;4695;-65
2024/02/21 02:25:56;;;;;;;;;;;;;;;;;;4964226;28;5248;-64
2024/02/21 02:28:21;;;;;;;;;;;;;;;;;;4964517;28;5192;-65
2024/02/21 02:30:47;;;;;;;;;;;;;;;;;;4960147;28;5087;-64
2024/02/21 02:33:12;;;;;;;;;;;;;;;;;;4949911;28;3440;-64
2024/02/21 02:35:37;;;;;;;;;;;;;;;;;;4967971;28;4677;-64
2024/02/21 02:38:03;;;;;;;;;;;;;;;;;;4961890;28;5091;-65
2024/02/21 02:40:28;;;;;;;;;;;;;;;;;;4962398;28;5076;-64
2024/02/21 02:42:57;;;;;;;;;;;;;;;;;;4962884;28;5237;-64
2024/02/21 02:45:23;;;;;;;;;;;;;;;;;;4964315;28;4822;-64
2024/02/21 02:47:48;;;;;;;;;;;;;;;;;;4965412;28;3567;-65
2024/02/21 02:50:14;;;;;;;;;;;;;;;;;;4961167;28;5146;-64
2024/02/21 02:52:39;;;;;;;;;;;;;;;;;;4964031;28;5312;-65
2024/02/21 02:55:05;;;;;;;;;;;;;;;;;;4960727;28;4549;-65
2024/02/21 02:57:30;;;;;;;;;;;;;;;;;;4955619;28;4687;-68
2024/02/21 02:59:56;;;;;;;;;;;;;;;;;;4961313;28;3323;-64
2024/02/21 03:02:21;;;;;;;;;;;;;;;;;;4962611;28;4502;-64
2024/02/21 03:04:46;;;;;;;;;;;;;;;;;;4961574;28;4502;-66
2024/02/21 03:07:11;;;;;;;;;;;;;;;;;;4961169;28;5566;-65
2024/02/21 03:09:37;;;;;;;;;;;;;;;;;;4958993;28;5080;-64
2024/02/21 03:12:03;;;;;;;;;;;;;;;;;;4942658;29;3346;-64
2024/02/21 03:14:29;;;;;;;;;;;;;;;;;;4960543;28;4481;-63
2024/02/21 03:16:54;;;;;;;;;;;;;;;;;;4959482;28;5007;-65
2024/02/21 03:19:19;;;;;;;;;;;;;;;;;;4962791;28;5536;-64
2024/02/21 03:21:45;;;;;;;;;;;;;;;;;;4960863;28;5181;-64
2024/02/21 03:24:10;;;;;;;;;;;;;;;;;;4960012;28;3411;-65
2024/02/21 03:26:35;;;;;;;;;;;;;;;;;;4958800;28;4624;-65
2024/02/21 03:29:01;;;;;;;;;;;;;;;;;;4959496;28;5123;-65
2024/02/21 03:31:26;;;;;;;;;;;;;;;;;;4963541;28;4933;-65
2024/02/21 03:33:51;;;;;;;;;;;;;;;;;;4961920;28;5124;-64
2024/02/21 03:36:17;;;;;;;;;;;;;;;;;;4963564;28;5225;-64
2024/02/21 03:38:42;;;;;;;;;;;;;;;;;;4965210;28;3860;-64
2024/02/21 03:41:07;;;;;;;;;;;;;;;;;;4958039;28;4571;-68
2024/02/21 03:43:33;;;;;;;;;;;;;;;;;;4947252;28;5451;-64
2024/02/21 03:45:58;;;;;;;;;;;;;;;;;;4962365;28;4926;-64
2024/02/21 03:48:23;;;;;;;;;;;;;;;;;;4959538;28;4946;-65
2024/02/21 03:50:48;;;;;;;;;;;;;;;;;;4967082;28;3423;-65
2024/02/21 03:53:14;;;;;;;;;;;;;;;;;;4963795;28;4711;-65
2024/02/21 03:55:39;;;;;;;;;;;;;;;;;;4964784;28;5042;-65
2024/02/21 03:58:04;;;;;;;;;;;;;;;;;;4965969;28;4544;-65
2024/02/21 04:00:29;;;;;;;;;;;;;;;;;;4964282;28;5060;-65
2024/02/21 04:02:55;;;;;;;;;;;;;;;;;;4967245;28;3321;-64
2024/02/21 04:05:21;;;;;;;;;;;;;;;;;;4968449;28;5114;-65
2024/02/21 04:07:46;;;;;;;;;;;;;;;;;;4967408;28;4531;-64
2024/02/21 04:10:11;;;;;;;;;;;;;;;;;;4968141;28;5168;-65
2024/02/21 04:12:38;;;;;;;;;;;;;;;;;;4962935;28;5090;-66
2024/02/21 04:15:03;;;;;;;;;;;;;;;;;;4969478;28;3323;-65
2024/02/21 04:17:29;;;;;;;;;;;;;;;;;;4961988;28;5116;-64
2024/02/21 04:19:55;;;;;;;;;;;;;;;;;;4966154;28;5183;-65
2024/02/21 04:22:20;;;;;;;;;;;;;;;;;;4933615;28;4734;-64
2024/02/21 04:24:45;;;;;;;;;;;;;;;;;;4968645;28;4740;-65
2024/02/21 04:27:11;;;;;;;;;;;;;;;;;;4970766;28;1080;-65
2024/02/21 04:29:37;;;;;;;;;;;;;;;;;;4965292;28;4605;-65
2024/02/21 04:32:02;;;;;;;;;;;;;;;;;;4963590;28;5121;-65
2024/02/21 04:34:28;;;;;;;;;;;;;;;;;;4967506;28;5143;-65
2024/02/21 04:36:53;;;;;;;;;;;;;;;;;;4961532;28;5911;-64
2024/02/21 04:39:18;;;;;;;;;;;;;;;;;;4968061;28;5086;-67
2024/02/21 04:41:44;;;;;;;;;;;;;;;;;;4969056;28;3168;-65
2024/02/21 04:44:09;;;;;;;;;;;;;;;;;;4960228;28;4669;-65
2024/02/21 04:46:34;;;;;;;;;;;;;;;;;;4964337;28;5029;-64
2024/02/21 04:49:00;;;;;;;;;;;;;;;;;;4965915;28;5519;-64
2024/02/21 04:51:25;;;;;;;;;;;;;;;;;;4932112;28;5910;-64
2024/02/21 04:53:50;;;;;;;;;;;;;;;;;;4967457;28;3293;-64
2024/02/21 04:56:16;;;;;;;;;;;;;;;;;;4963439;28;5095;-64
2024/02/21 04:58:41;;;;;;;;;;;;;;;;;;4964031;28;5152;-65
2024/02/21 05:01:07;;;;;;;;;;;;;;;;;;4967012;28;5103;-66
2024/02/21 05:03:33;;;;;;;;;;;;;;;;;;4947589;28;5043;-65
2024/02/21 05:05:58;;;;;;;;;;;;;;;;;;4969736;28;1197;-65
2024/02/21 05:08:24;;;;;;;;;;;;;;;;;;4968124;28;5317;-65
2024/02/21 05:10:49;;;;;;;;;;;;;;;;;;4969199;28;4491;-65
2024/02/21 05:13:15;;;;;;;;;;;;;;;;;;4960937;28;4686;-65
2024/02/21 05:15:40;;;;;;;;;;;;;;;;;;4968175;28;5085;-66
2024/02/21 05:18:06;;;;;;;;;;;;;;;;;;4962779;28;1237;-66
2024/02/21 05:20:31;;;;;;;;;;;;;;;;;;4965246;28;5196;-65
2024/02/21 05:22:56;;;;;;;;;;;;;;;;;;4965935;28;5176;-65
2024/02/21 05:25:22;;;;;;;;;;;;;;;;;;4967585;28;5092;-66
2024/02/21 05:27:48;;;;;;;;;;;;;;;;;;4951051;28;4518;-66
2024/02/21 05:30:13;;;;;;;;;;;;;;;;;;4967011;28;5143;-63
2024/02/21 05:32:38;;;;;;;;;;;;;;;;;;4949622;28;3314;-66
2024/02/21 05:35:04;;;;;;;;;;;;;;;;;;4968852;28;4847;-67
2024/02/21 05:37:29;;;;;;;;;;;;;;;;;;4961875;28;5864;-64
2024/02/21 05:39:54;;;;;;;;;;;;;;;;;;4968555;28;5103;-64
2024/02/21 05:42:20;;;;;;;;;;;;;;;;;;4968188;28;4481;-65
2024/02/21 05:44:45;;;;;;;;;;;;;;;;;;4969826;28;1077;-65
2024/02/21 05:47:12;;;;;;;;;;;;;;;;;;4968294;28;5206;-67
2024/02/21 05:49:37;;;;;;;;;;;;;;;;;;4960536;28;4511;-65
2024/02/21 05:52:02;;;;;;;;;;;;;;;;;;4966146;28;5928;-65
2024/02/21 05:54:28;;;;;;;;;;;;;;;;;;4964510;28;4684;-66
2024/02/21 05:56:53;;;;;;;;;;;;;;;;;;4962470;28;3266;-66
2024/02/21 05:59:18;;;;;;;;;;;;;;;;;;4961688;28;5184;-66
2024/02/21 06:01:44;;;;;;;;;;;;;;;;;;4964544;28;4715;-65
2024/02/21 06:04:09;;;;;;;;;;;;;;;;;;4963818;28;5110;-66
2024/02/21 06:06:34;;;;;;;;;;;;;;;;;;4966719;28;6057;-65
2024/02/21 06:09:02;;;;;;;;;;;;;;;;;;4964441;28;3447;-67
2024/02/21 06:11:28;;;;;;;;;;;;;;;;;;4964474;28;5301;-66
2024/02/21 06:13:53;;;;;;;;;;;;;;;;;;4946631;28;5270;-66
2024/02/21 06:16:18;;;;;;;;;;;;;;;;;;4963636;28;5067;-70
2024/02/21 06:18:44;;;;;;;;;;;;;;;;;;4939313;28;5350;-66
2024/02/21 06:21:09;;;;;;;;;;;;;;;;;;4948490;28;3299;-65
2024/02/21 06:23:36;;;;;;;;;;;;;;;;;;4968078;28;5885;-65
2024/02/21 06:26:02;;;;;;;;;;;;;;;;;;4961393;28;5036;-66
2024/02/21 06:28:27;;;;;;;;;;;;;;;;;;4962886;28;5364;-66
2024/02/21 06:30:52;;;;;;;;;;;;;;;;;;4964487;28;4744;-63
2024/02/21 06:33:17;;;;;;;;;;;;;;;;;;4964437;28;4550;-64
2024/02/21 06:35:46;;;;;;;;;;;;;;;;;;4955236;28;3494;-64
2024/02/21 06:38:11;;;;;;;;;;;;;;;;;;4961038;28;5039;-65
2024/02/21 06:40:39;;;;;;;;;;;;;;;;;;4964445;28;4600;-65
2024/02/21 06:43:05;;;;;;;;;;;;;;;;;;4959920;28;5205;-63
2024/02/21 06:45:30;;;;;;;;;;;;;;;;;;4959454;28;5162;-63
2024/02/21 06:47:55;;;;;;;;;;;;;;;;;;4956815;28;3315;-62
2024/02/21 06:50:21;;;;;;;;;;;;;;;;;;4960828;28;5076;-62
2024/02/21 06:52:46;;;;;;;;;;;;;;;;;;4956115;28;5047;-62
2024/02/21 06:55:11;;;;;;;;;;;;;;;;;;4964848;28;6097;-62
2024/02/21 06:57:37;;;;;;;;;;;;;;;;;;4959997;28;4909;-61
2024/02/21 07:00:02;;;;;;;;;;;;;;;;;;4965915;28;3363;-62
2024/02/21 07:02:28;;;;;;;;;;;;;;;;;;4964262;28;4710;-61
2024/02/21 07:04:53;;;;;;;;;;;;;;;;;;4967207;28;4480;-61
2024/02/21 07:07:18;;;;;;;;;;;;;;;;;;4958827;28;5025;-62
2024/02/21 07:09:44;;;;;;;;;;;;;;;;;;4963392;28;4803;-62
2024/02/21 07:12:09;;;;;;;;;;;;;;;;;;4965575;28;3378;-61
2024/02/21 07:14:35;;;;;;;;;;;;;;;;;;4945531;28;4473;-61
2024/02/21 07:17:01;;;;;;;;;;;;;;;;;;4962496;28;5195;-61
2024/02/21 07:19:26;;;;;;;;;;;;;;;;;;4956533;28;5090;-61
2024/02/21 07:21:51;;;;;;;;;;;;;;;;;;4961175;28;5953;-62
2024/02/21 07:24:17;;;;;;;;;;;;;;;;;;4949728;28;5079;-62
2024/02/21 07:26:45;;;;;;;;;;;;;;;;;;4969424;28;3954;-61
2024/02/21 07:29:10;;;;;;;;;;;;;;;;;;4965886;28;4727;-61
2024/02/21 07:31:42;;;;;;;;;;;;;;;;;;4944845;28;5012;-61
2024/02/21 07:34:07;;;;;;;;;;;;;;;;;;4968079;28;4521;-61
2024/02/21 07:36:33;;;;;;;;;;;;;;;;;;4965655;28;5084;-61
2024/02/21 07:38:58;;;;;;;;;;;;;;;;;;4963670;28;3328;-62
2024/02/21 07:41:23;;;;;;;;;;;;;;;;;;4965950;28;4932;-61
2024/02/21 07:43:49;;;;;;;;;;;;;;;;;;4964550;28;4624;-61
2024/02/21 07:46:14;;;;;;;;;;;;;;;;;;4964282;28;5119;-61
2024/02/21 07:48:39;;;;;;;;;;;;;;;;;;4968227;28;5085;-62
2024/02/21 07:51:05;;;;;;;;;;;;;;;;;;4949164;28;3364;-61
2024/02/21 07:53:30;;;;;;;;;;;;;;;;;;4967411;28;4947;-61
2024/02/21 07:55:55;;;;;;;;;;;;;;;;;;4961200;28;4956;-61
2024/02/21 07:58:20;;;;;;;;;;;;;;;;;;4955578;28;5084;-62
2024/02/21 08:00:46;;;;;;;;;;;;;;;;;;4963346;28;5056;-62
2024/02/21 08:03:11;;;;;;;;;;;;;;;;;;4959863;28;3566;-62
2024/02/21 08:05:36;;;;;;;;;;;;;;;;;;4966879;28;5162;-62
2024/02/21 08:08:02;;;;;;;;;;;;;;;;;;4965684;28;5177;-62
2024/02/21 08:10:28;;;;;;;;;;;;;;;;;;4966844;28;5212;-61
2024/02/21 08:12:53;;;;;;;;;;;;;;;;;;4966971;28;5033;-61
2024/02/21 08:15:18;;;;;;;;;;;;;;;;;;4965109;28;5056;-63
2024/02/21 08:17:44;;;;;;;;;;;;;;;;;;4965472;28;3454;-62
2024/02/21 08:20:09;;;;;;;;;;;;;;;;;;4965826;28;5083;-62
2024/02/21 08:22:37;;;;;;;;;;;;;;;;;;4948520;28;6087;-61
2024/02/21 08:25:05;;;;;;;;;;;;;;;;;;4965976;28;5069;-62
2024/02/21 08:27:30;;;;;;;;;;;;;;;;;;4965739;28;4924;-61
2024/02/21 08:29:56;;;;;;;;;;;;;;;;;;4968875;28;3354;-62
2024/02/21 08:32:21;;;;;;;;;;;;;;;;;;4962665;28;5059;-61
2024/02/21 08:34:46;;;;;;;;;;;;;;;;;;4961953;28;4986;-61
2024/02/21 08:37:11;;;;;;;;;;;;;;;;;;4963829;28;5024;-61
2024/02/21 08:39:37;;;;;;;;;;;;;;;;;;4964798;28;4975;-61
2024/02/21 08:42:02;;;;;;;;;;;;;;;;;;4961403;28;3379;-61
2024/02/21 08:44:27;;;;;;;;;;;;;;;;;;4963632;28;5394;-61
2024/02/21 08:46:53;;;;;;;;;;;;;;;;;;4964872;28;5243;-61
2024/02/21 08:49:18;;;;;;;;;;;;;;;;;;4967008;28;5170;-61
2024/02/21 08:51:43;;;;;;;;;;;;;;;;;;4962838;28;4470;-62
2024/02/21 08:54:09;;;;;;;;;;;;;;;;;;4970151;28;3281;-62
2024/02/21 08:56:35;;;;;;;;;;;;;;;;;;4964975;28;4843;-62
2024/02/21 08:59:00;;;;;;;;;;;;;;;;;;4963409;28;5115;-62
2024/02/21 09:01:26;;;;;;;;;;;;;;;;;;4968559;28;5354;-61
2024/02/21 09:03:53;;;;;;;;;;;;;;;;;;4964446;28;5237;-61
2024/02/21 09:06:19;;;;;;;;;;;;;;;;;;4966247;28;5137;-61
2024/02/21 09:08:45;;;;;;;;;;;;;;;;;;4964518;28;3688;-62
2024/02/21 09:11:10;;;;;;;;;;;;;;;;;;4965016;28;4929;-62
2024/02/21 09:13:35;;;;;;;;;;;;;;;;;;4943067;29;4726;-62
2024/02/21 09:16:01;;;;;;;;;;;;;;;;;;4967436;28;5039;-62
2024/02/21 09:18:26;;;;;;;;;;;;;;;;;;4961593;28;5329;-62
2024/02/21 09:20:51;;;;;;;;;;;;;;;;;;4962660;28;3431;-62
2024/02/21 09:23:19;;;;;;;;;;;;;;;;;;4948245;28;5059;-62
2024/02/21 09:25:45;;;;;;;;;;;;;;;;;;4964507;28;4680;-63
2024/02/21 09:28:11;;;;;;;;;;;;;;;;;;4964368;28;5048;-61
2024/02/21 09:30:37;;;;;;;;;;;;;;;;;;4964004;28;5046;-61
2024/02/21 09:33:04;;;;;;;;;;;;;;;;;;4963606;28;3332;-62
2024/02/21 09:35:30;;;;;;;;;;;;;;;;;;4966212;28;4972;-62
2024/02/21 09:37:55;;;;;;;;;;;;;;;;;;4928673;28;4559;-61
2024/02/21 09:40:20;;;;;;;;;;;;;;;;;;4964538;28;5067;-62
2024/02/21 09:42:46;;;;;;;;;;;;;;;;;;4965068;28;5158;-61
2024/02/21 09:45:14;;;;;;;;;;;;;;;;;;4963683;28;3300;-62
2024/02/21 09:47:39;;;;;;;;;;;;;;;;;;4965896;28;4508;-62
2024/02/21 09:50:05;;;;;;;;;;;;;;;;;;4966903;28;5187;-62
2024/02/21 09:52:30;;;;;;;;;;;;;;;;;;4963971;28;4730;-61
2024/02/21 09:54:57;;;;;;;;;;;;;;;;;;4963099;28;5483;-62
2024/02/21 09:57:24;;;;;;;;;;;;;;;;;;4948537;28;4755;-62
2024/02/21 09:59:51;;;;;;;;;;;;;;;;;;4952165;28;3514;-62
2024/02/21 10:02:16;;;;;;;;;;;;;;;;;;4960033;28;4614;-62
2024/02/21 10:04:42;;;;;;;;;;;;;;;;;;4966421;28;4890;-62
2024/02/21 10:07:07;;;;;;;;;;;;;;;;;;4964972;28;4922;-61
2024/02/21 10:09:33;;;;;;;;;;;;;;;;;;4967846;28;5195;-61
2024/02/21 10:12:08;;;;;;;;;;;;;;;;;;4959770;28;3359;-62
2024/02/21 10:14:33;;;;;;;;;;;;;;;;;;4958992;28;4650;-61
2024/02/21 10:16:58;;;;;;;;;;;;;;;;;;4964454;28;5279;-61
2024/02/21 10:19:24;;;;;;;;;;;;;;;;;;4965222;28;5117;-63
2024/02/21 10:22:05;;;;;;;;;;;;;;;;;;4962954;28;4751;-61
2024/02/21 10:24:32;;;;;;;;;;;;;;;;;;4954531;28;4535;-61
2024/02/21 10:27:10;;;;;;;;;;;;;;;;;;4969280;28;1146;-62
2024/02/21 10:29:36;;;;;;;;;;;;;;;;;;4945895;28;5033;-62
2024/02/21 10:32:07;;;;;;;;;;;;;;;;;;4966039;28;5011;-62
2024/02/21 10:34:33;;;;;;;;;;;;;;;;;;4959658;28;5082;-62
2024/02/21 10:37:04;;;;;;;;;;;;;;;;;;4966294;28;5188;-62
2024/02/21 10:39:31;;;;;;;;;;;;;;;;;;4958707;28;5092;-62
2024/02/21 10:41:56;;;;;;;;;;;;;;;;;;4961765;28;1134;-62
2024/02/21 10:44:22;;;;;;;;;;;;;;;;;;4957508;28;5000;-62
2024/02/21 10:46:47;;;;;;;;;;;;;;;;;;4945363;28;4719;-62
2024/02/21 10:49:25;;;;;;;;;;;;;;;;;;4966741;28;5135;-61
2024/02/21 10:51:50;;;;;;;;;;;;;;;;;;4948309;28;4539;-61
2024/02/21 10:54:18;;;;;;;;;;;;;;;;;;4948091;28;5059;-61
2024/02/21 10:56:43;;;;;;;;;;;;;;;;;;4960359;28;3424;-61
2024/02/21 10:59:09;;;;;;;;;;;;;;;;;;4941379;28;4639;-63
2024/02/21 11:01:37;;;;;;;;;;;;;;;;;;4961885;28;5108;-62
2024/02/21 11:04:03;;;;;;;;;;;;;;;;;;4960555;28;4527;-62
2024/02/21 11:06:28;;;;;;;;;;;;;;;;;;4963678;28;4769;-61
2024/02/21 11:09:00;;;;;;;;;;;;;;;;;;4967013;28;1970;-62
2024/02/21 11:11:25;;;;;;;;;;;;;;;;;;4960564;28;4968;-61
2024/02/21 11:13:51;;;;;;;;;;;;;;;;;;4962480;28;4863;-62
2024/02/21 11:16:22;;;;;;;;;;;;;;;;;;4964483;28;5261;-62
2024/02/21 11:18:48;;;;;;;;;;;;;;;;;;4965160;28;5023;-62
2024/02/21 11:21:13;;;;;;;;;;;;;;;;;;4965066;28;4989;-61
2024/02/21 11:23:38;;;;;;;;;;;;;;;;;;4967624;28;3359;-62
2024/02/21 11:26:07;;;;;;;;;;;;;;;;;;4965090;28;4648;-62
2024/02/21 11:28:32;;;;;;;;;;;;;;;;;;4967189;28;5029;-62
2024/02/21 11:31:08;;;;;;;;;;;;;;;;;;4964174;28;5129;-62
2024/02/21 11:33:33;;;;;;;;;;;;;;;;;;4948291;28;5070;-62
2024/02/21 11:35:59;;;;;;;;;;;;;;;;;;4966317;28;3324;-62
2024/02/21 11:38:25;;;;;;;;;;;;;;;;;;4963286;28;5373;-61
2024/02/21 11:40:50;;;;;;;;;;;;;;;;;;4961338;28;5062;-61
2024/02/21 11:43:16;;;;;;;;;;;;;;;;;;4964670;28;4583;-62
2024/02/21 11:45:41;;;;;;;;;;;;;;;;;;4960123;28;5237;-62
2024/02/21 11:48:07;;;;;;;;;;;;;;;;;;4948634;28;3375;-62
2024/02/21 11:50:34;;;;;;;;;;;;;;;;;;4963331;28;5088;-61
2024/02/21 11:52:59;;;;;;;;;;;;;;;;;;4965334;28;4725;-61
2024/02/21 11:55:24;;;;;;;;;;;;;;;;;;4965541;28;5123;-62
2024/02/21 11:57:50;;;;;;;;;;;;;;;;;;4960799;28;4689;-62
2024/02/21 12:00:16;;;;;;;;;;;;;;;;;;4956408;28;5032;-62
2024/02/21 12:02:42;;;;;;;;;;;;;;;;;;4966111;28;3443;-62
2024/02/21 12:05:07;;;;;;;;;;;;;;;;;;4961781;28;4929;-62
2024/02/21 12:07:33;;;;;;;;;;;;;;;;;;4960488;28;4660;-62
2024/02/21 12:10:01;;;;;;;;;;;;;;;;;;4945068;28;5141;-61
2024/02/21 12:12:28;;;;;;;;;;;;;;;;;;4943428;28;5046;-61
2024/02/21 12:14:55;;;;;;;;;;;;;;;;;;4960344;28;3376;-62
2024/02/21 12:17:21;;;;;;;;;;;;;;;;;;4966281;28;5064;-61
2024/02/21 12:19:46;;;;;;;;;;;;;;;;;;4948967;28;5108;-62
2024/02/21 12:22:16;;;;;;;;;;;;;;;;;;4963683;28;4935;-62
2024/02/21 12:24:47;;;;;;;;;;;;;;;;;;4964999;28;4534;-62
2024/02/21 12:27:12;;;;;;;;;;;;;;;;;;4947578;28;3490;-61
2024/02/21 12:29:37;;;;;;;;;;;;;;;;;;4959559;28;4538;-61
2024/02/21 12:32:04;;;;;;;;;;;;;;;;;;4963441;28;5312;-61
2024/02/21 12:34:31;;;;;;;;;;;;;;;;;;4966096;28;4705;-62
2024/02/21 12:36:57;;;;;;;;;;;;;;;;;;4960092;28;5161;-61
2024/02/21 12:39:22;;;;;;;;;;;;;;;;;;4969789;28;5118;-62
2024/02/21 12:41:48;;;;;;;;;;;;;;;;;;4969144;28;3330;-61
2024/02/21 12:44:14;;;;;;;;;;;;;;;;;;4960191;28;5133;-61
2024/02/21 12:46:42;;;;;;;;;;;;;;;;;;4963213;28;5093;-62
2024/02/21 12:49:10;;;;;;;;;;;;;;;;;;4969631;28;5117;-61
2024/02/21 12:51:35;;;;;;;;;;;;;;;;;;4948536;28;5109;-61
2024/02/21 12:54:02;;;;;;;;;;;;;;;;;;4950999;28;1177;-62
2024/02/21 12:56:28;;;;;;;;;;;;;;;;;;4964118;28;5104;-60
2024/02/21 12:58:53;;;;;;;;;;;;;;;;;;4962679;28;5108;-63
2024/02/21 13:01:19;;;;;;;;;;;;;;;;;;4967582;28;4693;-62
2024/02/21 13:03:44;;;;;;;;;;;;;;;;;;4969030;28;4968;-60
2024/02/21 13:06:10;;;;;;;;;;;;;;;;;;4958077;28;3284;-62
2024/02/21 13:08:36;;;;;;;;;;;;;;;;;;4965006;28;4951;-61
2024/02/21 13:11:01;;;;;;;;;;;;;;;;;;4963817;28;4528;-61
2024/02/21 13:13:26;;;;;;;;;;;;;;;;;;4964447;28;5094;-62
2024/02/21 13:15:52;;;;;;;;;;;;;;;;;;4968994;28;5095;-61
2024/02/21 13:18:17;;;;;;;;;;;;;;;;;;4946688;28;5190;-62
2024/02/21 13:20:42;;;;;;;;;;;;;;;;;;4966616;28;1077;-60
2024/02/21 13:23:08;;;;;;;;;;;;;;;;;;4966613;28;5025;-61
2024/02/21 13:25:33;;;;;;;;;;;;;;;;;;4967833;28;5112;-62
2024/02/21 13:27:58;;;;;;;;;;;;;;;;;;4967186;28;4460;-61
2024/02/21 13:30:25;;;;;;;;;;;;;;;;;;4965520;28;5140;-62
2024/02/21 13:32:50;;;;;;;;;;;;;;;;;;4967201;28;3602;-61
2024/02/21 13:35:16;;;;;;;;;;;;;;;;;;4968448;28;4822;-62
2024/02/21 13:37:41;;;;;;;;;;;;;;;;;;4961186;28;5212;-62
2024/02/21 13:40:08;;;;;;;;;;;;;;;;;;4967130;28;4919;-62
2024/02/21 13:42:34;;;;;;;;;;;;;;;;;;4964187;28;4894;-61
2024/02/21 13:44:59;;;;;;;;;;;;;;;;;;4964872;28;1136;-61
2024/02/21 13:47:25;;;;;;;;;;;;;;;;;;4963239;28;5243;-61
2024/02/21 13:49:50;;;;;;;;;;;;;;;;;;4965977;28;5113;-61
2024/02/21 13:52:15;;;;;;;;;;;;;;;;;;4963082;28;4496;-61
2024/02/21 13:54:41;;;;;;;;;;;;;;;;;;4967520;28;6338;-63
2024/02/21 13:57:07;;;;;;;;;;;;;;;;;;4961838;28;3336;-62
2024/02/21 13:59:33;;;;;;;;;;;;;;;;;;4958866;28;4839;-62
2024/02/21 14:01:59;;;;;;;;;;;;;;;;;;4966421;28;5151;-61
2024/02/21 14:04:24;;;;;;;;;;;;;;;;;;4961264;28;4971;-61
2024/02/21 14:06:49;;;;;;;;;;;;;;;;;;4967521;28;5113;-62
2024/02/21 14:09:15;;;;;;;;;;;;;;;;;;4965629;28;5084;-63
2024/02/21 14:11:41;;;;;;;;;;;;;;;;;;4961960;28;3422;-63
2024/02/21 14:14:06;;;;;;;;;;;;;;;;;;4961304;28;4869;-62
2024/02/21 14:16:32;;;;;;;;;;;;;;;;;;4965548;28;5024;-62
2024/02/21 14:18:57;;;;;;;;;;;;;;;;;;4946578;28;5247;-61
2024/02/21 14:21:23;;;;;;;;;;;;;;;;;;4967811;28;4947;-62
2024/02/21 14:23:48;;;;;;;;;;;;;;;;;;4968932;28;1059;-62
2024/02/21 14:26:14;;;;;;;;;;;;;;;;;;4967064;28;5093;-61
2024/02/21 14:28:40;;;;;;;;;;;;;;;;;;4964892;28;4640;-62
2024/02/21 14:31:08;;;;;;;;;;;;;;;;;;4962220;28;4664;-61
2024/02/21 14:33:34;;;;;;;;;;;;;;;;;;4964957;28;5212;-61
2024/02/21 14:35:59;;;;;;;;;;;;;;;;;;4969594;28;1181;-61
2024/02/21 14:38:25;;;;;;;;;;;;;;;;;;4961097;28;4959;-61
2024/02/21 14:40:50;;;;;;;;;;;;;;;;;;4968133;28;5597;-60
2024/02/21 14:43:17;;;;;;;;;;;;;;;;;;4967310;28;5027;-61
2024/02/21 14:45:43;;;;;;;;;;;;;;;;;;4963846;28;5061;-62
2024/02/21 14:48:08;;;;;;;;;;;;;;;;;;4962064;28;3508;-61
2024/02/21 14:50:33;;;;;;;;;;;;;;;;;;4958214;28;5005;-61
2024/02/21 14:52:59;;;;;;;;;;;;;;;;;;4962184;28;5014;-61
2024/02/21 14:55:24;;;;;;;;;;;;;;;;;;4962797;28;5944;-60
2024/02/21 14:57:49;;;;;;;;;;;;;;;;;;4959786;28;5013;-61
2024/02/21 15:00:15;;;;;;;;;;;;;;;;;;4963529;28;5105;-62
2024/02/21 15:02:40;;;;;;;;;;;;;;;;;;4945226;28;3574;-62
2024/02/21 15:05:06;;;;;;;;;;;;;;;;;;4953074;28;5166;-61
2024/02/21 15:07:31;;;;;;;;;;;;;;;;;;4961441;28;4684;-61
2024/02/21 15:09:57;;;;;;;;;;;;;;;;;;4960121;28;5080;-61
2024/02/21 15:12:23;;;;;;;;;;;;;;;;;;4962954;28;5147;-61
2024/02/21 15:14:48;;;;;;;;;;;;;;;;;;4963363;28;3256;-61
2024/02/21 15:17:13;;;;;;;;;;;;;;;;;;4962341;28;5252;-61
2024/02/21 15:19:43;;;;;;;;;;;;;;;;;;4961439;28;5248;-61
2024/02/21 15:22:11;;;;;;;;;;;;;;;;;;4954857;28;4732;-60
2024/02/21 15:24:36;;;;;;;;;;;;;;;;;;4958760;28;5115;-61
2024/02/21 15:27:02;;;;;;;;;;;;;;;;;;4965621;28;3331;-61
2024/02/21 15:29:28;;;;;;;;;;;;;;;;;;4965074;28;5120;-61
2024/02/21 15:31:53;;;;;;;;;;;;;;;;;;4965197;28;5070;-61
2024/02/21 15:34:18;;;;;;;;;;;;;;;;;;4959227;28;5083;-62
2024/02/21 15:36:44;;;;;;;;;;;;;;;;;;4959410;28;4815;-61
2024/02/21 15:39:10;;;;;;;;;;;;;;;;;;4961435;28;3789;-61
2024/02/21 15:41:36;;;;;;;;;;;;;;;;;;4959398;28;5997;-61
2024/02/21 15:44:02;;;;;;;;;;;;;;;;;;4959283;28;4737;-62
2024/02/21 15:46:28;;;;;;;;;;;;;;;;;;4964193;28;5151;-61
2024/02/21 15:48:54;;;;;;;;;;;;;;;;;;4944254;28;5039;-61
2024/02/21 15:51:20;;;;;;;;;;;;;;;;;;4966573;28;4799;-61
2024/02/21 15:53:45;;;;;;;;;;;;;;;;;;4965941;28;3433;-61
2024/02/21 15:56:13;;;;;;;;;;;;;;;;;;4966035;28;5081;-62
2024/02/21 15:58:39;;;;;;;;;;;;;;;;;;4965131;28;4911;-61
2024/02/21 16:01:04;;;;;;;;;;;;;;;;;;4965773;28;5143;-61
2024/02/21 16:03:31;;;;;;;;;;;;;;;;;;4967913;28;5055;-62
2024/02/21 16:05:56;;;;;;;;;;;;;;;;;;4969830;28;3304;-62
2024/02/21 16:08:22;;;;;;;;;;;;;;;;;;4963993;28;4822;-62
2024/02/21 16:10:47;;;;;;;;;;;;;;;;;;4939473;28;5046;-61
2024/02/21 16:13:12;;;;;;;;;;;;;;;;;;4964641;28;4897;-61
2024/02/21 16:15:38;;;;;;;;;;;;;;;;;;4963989;28;5193;-61
2024/02/21 16:18:05;;;;;;;;;;;;;;;;;;4966098;28;3915;-62
2024/02/21 16:20:30;;;;;;;;;;;;;;;;;;4961853;28;5305;-62
2024/02/21 16:22:59;;;;;;;;;;;;;;;;;;4958482;28;4677;-61
2024/02/21 16:25:24;;;;;;;;;;;;;;;;;;4959399;28;4728;-62
2024/02/21 16:27:50;;;;;;;;;;;;;;;;;;4958325;28;5090;-61
2024/02/21 16:30:16;;;;;;;;;;;;;;;;;;4966276;28;5111;-63
2024/02/21 16:32:42;;;;;;;;;;;;;;;;;;4964406;28;3561;-61
2024/02/21 16:35:08;;;;;;;;;;;;;;;;;;4957637;28;4695;-61
2024/02/21 16:37:33;;;;;;;;;;;;;;;;;;4961686;28;4522;-61
2024/02/21 16:39:59;;;;;;;;;;;;;;;;;;4963314;28;5167;-61
2024/02/21 16:42:24;;;;;;;;;;;;;;;;;;4953997;28;5094;-62
2024/02/21 16:44:50;;;;;;;;;;;;;;;;;;4949698;28;3727;-61
2024/02/21 16:47:16;;;;;;;;;;;;;;;;;;4960876;28;4686;-61
2024/02/21 16:49:42;;;;;;;;;;;;;;;;;;4943599;28;4516;-61
2024/02/21 16:52:08;;;;;;;;;;;;;;;;;;4959820;28;4526;-61